createdAt,value
2018-03-03T00:00:36.108Z,-3.20
2018-03-03T00:03:04.392Z,-3.10
2018-03-03T00:05:32.657Z,-3.20
2018-03-03T00:08:00.930Z,-3.20
2018-03-03T00:10:29.194Z,-3.30
2018-03-03T00:12:57.461Z,-3.30
2018-03-03T00:15:25.729Z,-3.30
2018-03-03T00:17:54.004Z,-3.20
2018-03-03T00:20:22.254Z,-3.20
2018-03-03T00:22:51.316Z,-3.10
2018-03-03T00:25:19.570Z,-3.10
2018-03-03T00:27:47.828Z,-3.20
2018-03-03T00:30:16.094Z,-3.30
2018-03-03T00:32:44.358Z,-3.30
2018-03-03T00:35:13.387Z,-3.30
2018-03-03T00:37:41.643Z,-3.30
2018-03-03T00:40:09.907Z,-3.30
2018-03-03T00:42:38.171Z,-3.30
2018-03-03T00:45:07.211Z,-3.40
2018-03-03T00:47:35.482Z,-3.40
2018-03-03T00:50:03.749Z,-3.40
2018-03-03T00:52:32.004Z,-3.50
2018-03-03T00:55:01.056Z,-3.50
2018-03-03T00:57:29.307Z,-3.50
2018-03-03T00:59:57.574Z,-3.40
2018-03-03T01:02:25.835Z,-3.40
2018-03-03T01:04:54.113Z,-3.30
2018-03-03T01:07:22.374Z,-3.30
2018-03-03T01:09:51.416Z,-3.40
2018-03-03T01:12:19.680Z,-3.40
2018-03-03T01:14:47.976Z,-3.30
2018-03-03T01:17:16.234Z,-3.40
2018-03-03T01:19:44.513Z,-3.40
2018-03-03T01:22:12.778Z,-3.40
2018-03-03T01:24:41.036Z,-3.30
2018-03-03T01:27:09.291Z,-3.40
2018-03-03T01:29:38.319Z,-3.40
2018-03-03T01:32:06.579Z,-3.50
2018-03-03T01:34:34.850Z,-3.40
2018-03-03T01:37:03.118Z,-3.40
2018-03-03T01:39:32.151Z,-3.40
2018-03-03T01:42:00.408Z,-3.40
2018-03-03T01:44:28.695Z,-3.40
2018-03-03T01:46:56.979Z,-3.40
2018-03-03T01:49:25.263Z,-3.40
2018-03-03T01:51:53.560Z,-3.30
2018-03-03T01:54:21.871Z,-3.30
2018-03-03T01:56:50.189Z,-3.20
2018-03-03T01:59:18.480Z,-3.20
2018-03-03T02:01:46.779Z,-3.30
2018-03-03T02:04:15.110Z,-3.20
2018-03-03T02:06:43.433Z,-3.30
2018-03-03T02:09:11.725Z,-3.30
2018-03-03T02:11:40.004Z,-3.30
2018-03-03T02:14:08.336Z,-3.30
2018-03-03T02:16:36.655Z,-3.20
2018-03-03T02:19:05.826Z,-3.30
2018-03-03T02:21:34.125Z,-3.40
2018-03-03T02:24:03.201Z,-3.60
2018-03-03T02:26:31.523Z,-3.60
2018-03-03T02:28:59.834Z,-3.70
2018-03-03T02:31:28.112Z,-3.60
2018-03-03T02:33:56.409Z,-3.50
2018-03-03T02:36:24.677Z,-3.40
2018-03-03T02:38:53.000Z,-3.40
2018-03-03T02:41:21.352Z,-3.40
2018-03-03T02:43:49.682Z,-3.50
2018-03-03T02:46:17.975Z,-3.50
2018-03-03T02:48:46.296Z,-3.60
2018-03-03T02:51:14.608Z,-3.60
2018-03-03T02:53:42.914Z,-3.60
2018-03-03T02:56:11.223Z,-3.60
2018-03-03T02:58:40.277Z,-3.60
2018-03-03T03:01:08.585Z,-3.60
2018-03-03T03:03:37.641Z,-3.70
2018-03-03T03:06:05.936Z,-3.70
2018-03-03T03:08:34.240Z,-3.70
2018-03-03T03:11:03.315Z,-3.70
2018-03-03T03:13:31.651Z,-3.70
2018-03-03T03:15:59.971Z,-3.70
2018-03-03T03:18:28.283Z,-3.80
2018-03-03T03:20:56.581Z,-3.80
2018-03-03T03:23:24.910Z,-3.80
2018-03-03T03:25:53.237Z,-3.80
2018-03-03T03:28:21.613Z,-3.80
2018-03-03T03:30:49.939Z,-3.70
2018-03-03T03:33:19.076Z,-3.70
2018-03-03T03:35:47.402Z,-3.70
2018-03-03T03:38:15.715Z,-3.60
2018-03-03T03:40:44.006Z,-3.70
2018-03-03T03:43:12.399Z,-3.70
2018-03-03T03:45:40.709Z,-3.80
2018-03-03T03:48:09.780Z,-3.90
2018-03-03T03:50:38.107Z,-3.90
2018-03-03T03:53:07.171Z,-4.00
2018-03-03T03:55:35.491Z,-4.00
2018-03-03T03:58:03.765Z,-3.90
2018-03-03T04:00:32.065Z,-3.90
2018-03-03T04:03:00.372Z,-3.90
2018-03-03T04:05:28.687Z,-4.00
2018-03-03T04:07:56.997Z,-3.90
2018-03-03T04:10:25.293Z,-4.00
2018-03-03T04:12:53.596Z,-3.90
2018-03-03T04:15:22.673Z,-3.80
2018-03-03T04:17:50.973Z,-3.90
2018-03-03T04:20:20.032Z,-3.80
2018-03-03T04:22:48.344Z,-3.80
2018-03-03T04:25:16.699Z,-3.80
2018-03-03T04:27:45.022Z,-3.80
2018-03-03T04:30:13.346Z,-3.70
2018-03-03T04:32:41.677Z,-3.70
2018-03-03T04:35:10.057Z,-3.60
2018-03-03T04:37:39.131Z,-3.60
2018-03-03T04:40:07.443Z,-3.70
2018-03-03T04:42:35.723Z,-3.60
2018-03-03T04:45:04.035Z,-3.80
2018-03-03T04:47:32.406Z,-3.90
2018-03-03T04:50:00.691Z,-3.90
2018-03-03T04:52:28.983Z,-3.90
2018-03-03T04:54:58.069Z,-4.00
2018-03-03T04:57:26.380Z,-4.00
2018-03-03T05:00:00.092Z,-4.10
2018-03-03T05:02:29.177Z,-4.00
2018-03-03T05:04:59.287Z,-4.00
2018-03-03T05:07:33.984Z,-4.00
2018-03-03T05:10:02.277Z,-4.00
2018-03-03T05:12:33.705Z,-4.10
2018-03-03T05:18:11.260Z,-4.10
2018-03-03T05:20:45.020Z,-4.00
2018-03-03T05:26:22.879Z,-4.00
2018-03-03T05:28:56.740Z,-4.00
2018-03-03T05:34:37.201Z,-4.10
2018-03-03T05:37:10.864Z,-4.10
2018-03-03T05:39:45.387Z,-4.20
2018-03-03T05:42:19.846Z,-4.20
2018-03-03T05:47:56.811Z,-4.20
2018-03-03T05:50:26.114Z,-4.20
2018-03-03T05:52:58.080Z,-4.30
2018-03-03T05:55:29.350Z,-4.30
2018-03-03T06:01:12.025Z,-4.20
2018-03-03T06:03:45.670Z,-4.20
2018-03-03T06:06:13.931Z,-4.20
2018-03-03T06:08:43.502Z,-4.20
2018-03-03T06:11:11.771Z,-4.10
2018-03-03T06:13:40.026Z,-4.20
2018-03-03T06:16:08.294Z,-4.20
2018-03-03T06:18:36.562Z,-4.20
2018-03-03T06:21:04.845Z,-4.10
2018-03-03T06:23:33.104Z,-4.10
2018-03-03T06:26:01.359Z,-4.00
2018-03-03T06:28:30.387Z,-3.80
2018-03-03T06:30:58.647Z,-3.90
2018-03-03T06:33:26.933Z,-3.90
2018-03-03T06:35:55.199Z,-3.80
2018-03-03T06:38:23.494Z,-3.80
2018-03-03T06:40:51.752Z,-3.80
2018-03-03T06:43:20.035Z,-3.90
2018-03-03T06:45:48.315Z,-3.80
2018-03-03T06:48:16.670Z,-3.80
2018-03-03T06:50:45.689Z,-3.80
2018-03-03T06:53:13.970Z,-3.80
2018-03-03T06:55:42.244Z,-3.80
2018-03-03T06:58:10.509Z,-3.70
2018-03-03T07:00:38.812Z,-3.70
2018-03-03T07:03:07.030Z,-3.70
2018-03-03T07:05:36.063Z,-3.70
2018-03-03T07:08:04.337Z,-3.70
2018-03-03T07:10:32.596Z,-3.60
2018-03-03T07:13:00.868Z,-3.70
2018-03-03T07:15:29.133Z,-3.70
2018-03-03T07:17:58.175Z,-3.60
2018-03-03T07:20:26.459Z,-3.70
2018-03-03T07:22:54.718Z,-3.70
2018-03-03T07:25:23.000Z,-3.60
2018-03-03T07:27:51.260Z,-3.60
2018-03-03T07:30:19.533Z,-3.50
2018-03-03T07:32:47.796Z,-3.40
2018-03-03T07:35:16.091Z,-3.50
2018-03-03T07:37:44.349Z,-3.50
2018-03-03T07:40:12.612Z,-3.40
2018-03-03T07:42:41.634Z,-3.50
2018-03-03T07:45:10.929Z,-3.50
2018-03-03T07:47:39.186Z,-3.50
2018-03-03T07:50:07.474Z,-3.40
2018-03-03T07:52:35.736Z,-3.40
2018-03-03T07:55:04.006Z,-3.30
2018-03-03T07:57:32.272Z,-3.30
2018-03-03T08:00:01.316Z,-3.20
2018-03-03T08:02:29.592Z,-3.20
2018-03-03T08:04:57.868Z,-3.10
2018-03-03T08:07:26.120Z,-3.10
2018-03-03T08:09:54.403Z,-3.20
2018-03-03T08:12:22.666Z,-3.20
2018-03-03T08:14:50.933Z,-3.00
2018-03-03T08:17:19.204Z,-3.00
2018-03-03T08:19:47.491Z,-3.00
2018-03-03T08:22:15.768Z,-2.80
2018-03-03T08:24:44.038Z,-2.80
2018-03-03T08:27:12.309Z,-2.60
2018-03-03T08:29:40.572Z,-2.70
2018-03-03T08:32:09.611Z,-2.60
2018-03-03T08:34:37.909Z,-2.60
2018-03-03T08:37:06.955Z,-2.70
2018-03-03T08:39:35.222Z,-2.70
2018-03-03T08:42:04.262Z,-2.50
2018-03-03T08:44:32.560Z,-2.50
2018-03-03T08:47:00.848Z,-2.40
2018-03-03T08:49:29.105Z,-2.40
2018-03-03T08:51:57.401Z,-2.30
2018-03-03T08:54:25.650Z,-2.20
2018-03-03T08:56:53.911Z,-2.30
2018-03-03T08:59:22.209Z,-2.00
2018-03-03T09:01:50.469Z,-1.80
2018-03-03T09:04:18.742Z,-1.60
2018-03-03T09:06:47.005Z,-1.60
2018-03-03T09:09:15.275Z,-1.60
2018-03-03T09:11:43.562Z,-1.50
2018-03-03T09:14:11.824Z,-1.50
2018-03-03T09:16:40.097Z,-1.60
2018-03-03T09:19:08.389Z,-1.60
2018-03-03T09:21:36.678Z,-1.90
2018-03-03T09:24:04.945Z,-2.00
2018-03-03T09:26:33.214Z,-2.10
2018-03-03T09:29:01.495Z,-1.90
2018-03-03T09:31:29.775Z,-1.70
2018-03-03T09:33:58.070Z,-1.80
2018-03-03T09:36:26.336Z,-1.70
2018-03-03T09:38:54.637Z,-1.70
2018-03-03T09:41:22.968Z,-1.60
2018-03-03T09:43:51.244Z,-1.70
2018-03-03T09:46:19.512Z,-1.60
2018-03-03T09:48:47.785Z,-1.90
2018-03-03T09:51:16.048Z,-1.60
2018-03-03T09:53:44.319Z,-1.70
2018-03-03T09:56:12.575Z,-1.60
2018-03-03T09:58:41.611Z,-1.30
2018-03-03T10:01:09.880Z,-1.30
2018-03-03T10:03:38.147Z,-1.30
2018-03-03T10:06:06.424Z,-1.30
2018-03-03T10:08:34.684Z,-1.00
2018-03-03T10:11:03.794Z,-0.90
2018-03-03T10:13:32.059Z,-0.90
2018-03-03T10:16:01.095Z,-1.10
2018-03-03T10:18:29.355Z,-1.10
2018-03-03T10:20:57.615Z,-1.00
2018-03-03T10:23:25.871Z,-0.90
2018-03-03T10:25:54.890Z,-0.70
2018-03-03T10:28:23.141Z,-0.80
2018-03-03T10:30:52.178Z,-0.50
2018-03-03T10:33:20.430Z,-0.60
2018-03-03T10:35:48.699Z,-0.40
2018-03-03T10:38:16.951Z,-0.20
2018-03-03T10:40:45.207Z,-0.10
2018-03-03T10:43:13.457Z,-0.20
2018-03-03T10:45:41.710Z,-0.20
2018-03-03T10:48:09.995Z,-0.10
2018-03-03T10:50:38.311Z,-0.20
2018-03-03T10:53:06.514Z,-0.10
2018-03-03T10:55:35.531Z,0.00
2018-03-03T10:58:03.786Z,0.00
2018-03-03T11:00:32.814Z,0.10
2018-03-03T11:03:01.061Z,0.10
2018-03-03T11:05:29.308Z,0.20
2018-03-03T11:07:57.562Z,0.30
2018-03-03T11:10:25.862Z,0.20
2018-03-03T11:12:54.070Z,0.30
2018-03-03T11:15:22.309Z,0.30
2018-03-03T11:17:50.563Z,0.30
2018-03-03T11:20:18.805Z,0.40
2018-03-03T11:22:47.070Z,0.20
2018-03-03T11:25:16.089Z,0.30
2018-03-03T11:27:44.370Z,0.20
2018-03-03T11:30:12.652Z,0.40
2018-03-03T11:32:40.901Z,0.50
2018-03-03T11:35:09.158Z,0.30
2018-03-03T11:37:38.189Z,0.20
2018-03-03T11:40:06.435Z,0.20
2018-03-03T11:42:34.682Z,0.30
2018-03-03T11:45:02.948Z,0.20
2018-03-03T11:47:31.199Z,0.30
2018-03-03T11:49:59.441Z,0.50
2018-03-03T11:52:27.706Z,0.60
2018-03-03T11:54:55.958Z,0.50
2018-03-03T11:57:24.215Z,0.60
2018-03-03T11:59:52.468Z,0.60
2018-03-03T12:02:20.730Z,0.70
2018-03-03T12:04:48.989Z,0.50
2018-03-03T12:07:17.242Z,0.50
2018-03-03T12:09:46.254Z,0.80
2018-03-03T12:12:14.521Z,0.80
2018-03-03T12:14:43.560Z,1.00
2018-03-03T12:17:12.026Z,1.00
2018-03-03T12:19:40.286Z,1.00
2018-03-03T12:22:08.552Z,1.10
2018-03-03T12:24:36.794Z,1.30
2018-03-03T12:27:05.061Z,1.40
2018-03-03T12:29:33.322Z,1.60
2018-03-03T12:32:01.579Z,1.40
2018-03-03T12:34:29.851Z,1.60
2018-03-03T12:36:58.098Z,1.90
2018-03-03T12:39:27.120Z,1.50
2018-03-03T12:41:55.382Z,1.50
2018-03-03T12:44:23.627Z,1.50
2018-03-03T12:46:51.883Z,1.50
2018-03-03T12:49:20.150Z,1.70
2018-03-03T12:51:49.169Z,1.60
2018-03-03T12:54:17.425Z,1.60
2018-03-03T12:56:45.684Z,1.60
2018-03-03T12:59:13.947Z,1.50
2018-03-03T13:01:42.197Z,1.90
2018-03-03T13:04:10.455Z,2.10
2018-03-03T13:06:38.706Z,1.90
2018-03-03T13:09:06.966Z,1.70
2018-03-03T13:11:35.215Z,1.80
2018-03-03T13:14:03.478Z,2.00
2018-03-03T13:16:31.727Z,2.40
2018-03-03T13:18:59.994Z,2.40
2018-03-03T13:21:28.247Z,2.40
2018-03-03T13:23:56.502Z,2.30
2018-03-03T13:26:24.745Z,2.50
2018-03-03T13:28:53.771Z,2.30
2018-03-03T13:31:22.028Z,2.30
2018-03-03T13:33:50.290Z,2.40
2018-03-03T13:36:19.305Z,2.20
2018-03-03T13:38:47.562Z,2.20
2018-03-03T13:41:16.572Z,2.20
2018-03-03T13:43:44.834Z,2.20
2018-03-03T13:46:13.091Z,2.30
2018-03-03T13:48:42.117Z,1.90
2018-03-03T13:51:10.376Z,1.90
2018-03-03T13:53:39.399Z,2.20
2018-03-03T13:56:07.658Z,2.20
2018-03-03T13:58:35.907Z,2.10
2018-03-03T14:01:04.956Z,2.10
2018-03-03T14:03:33.185Z,2.00
2018-03-03T14:06:02.200Z,2.40
2018-03-03T14:08:30.460Z,2.40
2018-03-03T14:10:59.480Z,1.90
2018-03-03T14:13:27.745Z,1.90
2018-03-03T14:15:55.999Z,1.90
2018-03-03T14:18:24.260Z,1.70
2018-03-03T14:20:53.281Z,2.60
2018-03-03T14:23:21.543Z,2.60
2018-03-03T14:25:49.825Z,2.70
2018-03-03T14:28:18.087Z,2.70
2018-03-03T14:30:46.337Z,2.70
2018-03-03T14:33:14.601Z,2.60
2018-03-03T14:35:42.854Z,3.00
2018-03-03T14:38:11.111Z,3.50
2018-03-03T14:40:39.369Z,3.70
2018-03-03T14:43:08.378Z,3.40
2018-03-03T14:45:36.695Z,3.40
2018-03-03T14:48:04.907Z,3.20
2018-03-03T14:50:33.165Z,3.20
2018-03-03T14:53:01.423Z,3.30
2018-03-03T14:55:29.696Z,3.30
2018-03-03T14:57:57.947Z,3.10
2018-03-03T15:00:26.220Z,3.10
2018-03-03T15:02:54.478Z,3.30
2018-03-03T15:05:22.730Z,3.40
2018-03-03T15:07:50.988Z,3.50
2018-03-03T15:10:19.245Z,3.40
2018-03-03T15:12:47.511Z,3.00
2018-03-03T15:15:15.762Z,2.80
2018-03-03T15:17:44.027Z,2.50
2018-03-03T15:20:12.288Z,2.30
2018-03-03T15:22:41.306Z,2.00
2018-03-03T15:25:09.563Z,1.90
2018-03-03T15:27:38.591Z,2.00
2018-03-03T15:30:06.834Z,2.00
2018-03-03T15:32:35.859Z,2.20
2018-03-03T15:35:04.115Z,2.10
2018-03-03T15:37:32.378Z,2.10
2018-03-03T15:40:00.624Z,2.40
2018-03-03T15:42:28.889Z,2.40
2018-03-03T15:44:57.142Z,2.70
2018-03-03T15:47:25.411Z,2.90
2018-03-03T15:49:53.671Z,2.80
2018-03-03T15:52:21.945Z,3.00
2018-03-03T15:54:50.208Z,2.90
2018-03-03T15:57:19.226Z,3.00
2018-03-03T15:59:47.477Z,3.00
2018-03-03T16:02:15.747Z,2.70
2018-03-03T16:04:44.770Z,2.60
2018-03-03T16:07:13.016Z,2.60
2018-03-03T16:09:41.270Z,2.10
2018-03-03T16:12:09.519Z,1.80
2018-03-03T16:14:37.792Z,1.40
2018-03-03T16:17:07.335Z,1.30
2018-03-03T16:19:34.311Z,1.10
2018-03-03T16:22:02.569Z,0.90
2018-03-03T16:24:30.844Z,0.80
2018-03-03T16:26:59.876Z,0.80
2018-03-03T16:29:28.147Z,0.80
2018-03-03T16:31:56.412Z,0.70
2018-03-03T16:34:24.681Z,0.60
2018-03-03T16:36:52.939Z,0.40
2018-03-03T16:39:22.090Z,0.30
2018-03-03T16:41:50.347Z,0.30
2018-03-03T16:44:18.611Z,0.20
2018-03-03T16:46:46.867Z,0.20
2018-03-03T16:49:15.930Z,0.00
2018-03-03T16:51:44.158Z,0.00
2018-03-03T16:54:12.431Z,-0.10
2018-03-03T16:56:40.704Z,-0.20
2018-03-03T16:59:08.982Z,-0.20
2018-03-03T17:01:37.248Z,-0.30
2018-03-03T17:04:05.509Z,-0.30
2018-03-03T17:06:34.542Z,-0.30
2018-03-03T17:09:02.803Z,-0.30
2018-03-03T17:11:31.074Z,-0.40
2018-03-03T17:13:59.337Z,-0.40
2018-03-03T17:16:27.618Z,-0.30
2018-03-03T17:18:55.872Z,-0.40
2018-03-03T17:21:24.908Z,-0.30
2018-03-03T17:23:53.180Z,-0.40
2018-03-03T17:26:21.456Z,-0.30
2018-03-03T17:28:49.729Z,-0.30
2018-03-03T17:31:18.000Z,-0.30
2018-03-03T17:33:46.263Z,-0.40
2018-03-03T17:36:14.533Z,-0.40
2018-03-03T17:38:43.554Z,-0.40
2018-03-03T17:41:11.836Z,-0.40
2018-03-03T17:43:39.403Z,-0.30
2018-03-03T17:46:07.670Z,-0.30
2018-03-03T17:48:35.955Z,-0.30
2018-03-03T17:51:04.229Z,-0.30
2018-03-03T17:53:32.506Z,-0.30
2018-03-03T17:56:00.771Z,-0.30
2018-03-03T17:58:29.029Z,-0.30
2018-03-03T18:00:57.314Z,-0.30
2018-03-03T18:03:25.573Z,-0.30
2018-03-03T18:05:54.606Z,-0.30
2018-03-03T18:08:22.867Z,-0.40
2018-03-03T18:10:51.127Z,-0.40
2018-03-03T18:13:37.195Z,-0.30
2018-03-03T18:16:05.460Z,-0.40
2018-03-03T18:18:33.723Z,-0.30
2018-03-03T18:21:01.982Z,-0.30
2018-03-03T18:23:30.241Z,-0.40
2018-03-03T18:25:58.500Z,-0.50
2018-03-03T18:28:26.772Z,-0.50
2018-03-03T18:30:55.041Z,-0.50
2018-03-03T18:33:24.078Z,-0.60
2018-03-03T18:35:52.344Z,-0.60
2018-03-03T18:38:20.622Z,-0.60
2018-03-03T18:40:48.889Z,-0.60
2018-03-03T18:43:17.150Z,-0.70
2018-03-03T18:45:45.424Z,-0.70
2018-03-03T18:48:13.691Z,-0.70
2018-03-03T18:50:42.708Z,-0.70
2018-03-03T18:53:10.966Z,-0.70
2018-03-03T18:55:39.231Z,-0.70
2018-03-03T18:58:08.262Z,-0.80
2018-03-03T19:00:36.516Z,-0.80
2018-03-03T19:03:04.816Z,-0.80
2018-03-03T19:05:33.064Z,-0.80
2018-03-03T19:08:01.341Z,-0.90
2018-03-03T19:10:30.359Z,-0.90
2018-03-03T19:12:58.631Z,-0.90
2018-03-03T19:15:26.883Z,-1.00
2018-03-03T19:17:55.160Z,-0.90
2018-03-03T19:20:23.471Z,-0.90
2018-03-03T19:22:51.764Z,-0.90
2018-03-03T19:25:20.042Z,-0.90
2018-03-03T19:27:48.317Z,-1.00
2018-03-03T19:30:16.653Z,-1.10
2018-03-03T19:32:44.949Z,-1.10
2018-03-03T19:35:13.226Z,-1.10
2018-03-03T19:37:41.487Z,-1.10
2018-03-03T19:40:09.762Z,-1.10
2018-03-03T19:42:38.033Z,-1.00
2018-03-03T19:45:06.306Z,-1.00
2018-03-03T19:47:34.616Z,-1.00
2018-03-03T19:50:02.930Z,-1.00
2018-03-03T19:52:32.030Z,-1.00
2018-03-03T19:55:00.366Z,-1.10
2018-03-03T19:57:28.658Z,-1.00
2018-03-03T19:59:56.951Z,-1.00
2018-03-03T20:02:25.262Z,-1.00
2018-03-03T20:04:53.574Z,-0.90
2018-03-03T20:07:21.854Z,-0.90
2018-03-03T20:09:50.165Z,-1.00
2018-03-03T20:12:18.490Z,-1.00
2018-03-03T20:14:46.774Z,-0.90
2018-03-03T20:17:15.086Z,-0.80
2018-03-03T20:19:43.364Z,-0.80
2018-03-03T20:22:12.434Z,-0.80
2018-03-03T20:24:40.707Z,-0.80
2018-03-03T20:27:09.046Z,-0.70
2018-03-03T20:29:37.339Z,-0.80
2018-03-03T20:32:05.656Z,-0.70
2018-03-03T20:34:33.948Z,-0.70
2018-03-03T20:37:02.221Z,-0.60
2018-03-03T20:39:30.505Z,-0.60
2018-03-03T20:41:58.778Z,-0.60
2018-03-03T20:44:27.829Z,-0.60
2018-03-03T20:46:56.100Z,-0.60
2018-03-03T20:49:33.812Z,-0.70
2018-03-03T20:52:02.175Z,-0.70
2018-03-03T20:54:30.509Z,-0.70
2018-03-03T20:56:58.843Z,-0.70
2018-03-03T20:59:27.191Z,-0.70
2018-03-03T21:01:55.546Z,-0.80
2018-03-03T21:04:23.889Z,-0.70
2018-03-03T21:06:52.250Z,-0.70
2018-03-03T21:09:20.586Z,-0.80
2018-03-03T21:12:00.634Z,-0.70
2018-03-03T21:14:29.008Z,-0.70
2018-03-03T21:16:57.363Z,-0.70
2018-03-03T21:19:25.691Z,-0.70
2018-03-03T21:21:54.053Z,-0.70
2018-03-03T21:24:22.392Z,-0.70
2018-03-03T21:26:51.507Z,-0.70
2018-03-03T21:29:19.866Z,-0.70
2018-03-03T21:31:48.173Z,-0.80
2018-03-03T21:34:16.541Z,-0.70
2018-03-03T21:36:44.857Z,-0.70
2018-03-03T21:39:13.237Z,-0.80
2018-03-03T21:41:41.543Z,-0.80
2018-03-03T21:44:09.883Z,-0.90
2018-03-03T21:46:38.215Z,-0.90
2018-03-03T21:49:06.560Z,-0.90
2018-03-03T21:51:34.916Z,-0.80
2018-03-03T21:54:03.267Z,-0.80
2018-03-03T21:56:32.374Z,-0.80
2018-03-03T21:59:00.730Z,-0.80
2018-03-03T22:01:29.108Z,-0.80
2018-03-03T22:03:58.251Z,-0.90
2018-03-03T22:06:26.611Z,-1.00
2018-03-03T22:08:54.976Z,-0.90
2018-03-03T22:11:23.332Z,-0.90
2018-03-03T22:13:51.666Z,-1.00
2018-03-03T22:16:20.028Z,-1.00
2018-03-03T22:18:48.370Z,-1.00
2018-03-03T22:21:17.488Z,-1.00
2018-03-03T22:23:45.863Z,-1.00
2018-03-03T22:26:14.251Z,-1.00
2018-03-03T22:28:42.615Z,-0.90
2018-03-03T22:31:10.955Z,-0.80
2018-03-03T22:33:39.294Z,-0.80
2018-03-03T22:36:07.644Z,-0.80
2018-03-03T22:38:36.005Z,-0.80
2018-03-03T22:41:04.359Z,-0.80
2018-03-03T22:43:32.683Z,-0.80
2018-03-03T22:46:01.034Z,-0.80
2018-03-03T22:48:30.142Z,-0.90
2018-03-03T22:50:59.248Z,-0.90
2018-03-03T22:53:27.663Z,-0.90
2018-03-03T22:55:56.032Z,-0.90
2018-03-03T22:58:24.377Z,-0.90
2018-03-03T23:00:52.747Z,-0.90
2018-03-03T23:03:21.073Z,-0.80
2018-03-03T23:05:49.491Z,-0.80
2018-03-03T23:08:17.764Z,-0.80
2018-03-03T23:10:46.887Z,-0.80
2018-03-03T23:13:15.242Z,-0.80
2018-03-03T23:15:44.275Z,-0.80
2018-03-03T23:18:12.534Z,-0.80
2018-03-03T23:20:40.810Z,-0.80
2018-03-03T23:23:09.065Z,-0.80
2018-03-03T23:25:38.095Z,-0.60
2018-03-03T23:28:06.357Z,-0.60
2018-03-03T23:30:34.613Z,-0.60
2018-03-03T23:33:03.634Z,-0.60
2018-03-03T23:35:31.907Z,-0.60
2018-03-03T23:38:00.157Z,-0.60
2018-03-03T23:40:29.189Z,-0.60
2018-03-03T23:42:57.441Z,-0.60
2018-03-03T23:45:25.719Z,-0.60
2018-03-03T23:47:53.987Z,-0.60
2018-03-03T23:50:22.252Z,-0.60
2018-03-03T23:52:51.283Z,-0.50
2018-03-03T23:55:19.552Z,-0.50
2018-03-03T23:57:47.813Z,-0.60
